Purdy, Missouri
Current Conditions -  °F | °C
As of 10:35 AM on Friday 19 Dec 2014 (Local Time) from KHFJ Reporting Station
Haze Haze  
Wind Chill: 34°   Ceiling: 400
Heat Index: 37°   Visibility: 5mi
Dew Point: 37°   Wind: 5mph
Humidity: 100%   Direction: 100°E
Pressure: 30.23"   Gusts: NA
Location:  36.82°N, 93.92°W
Report Text: KHFJ 191635Z AUTO 10004KT 5SM BR OVC004 03/03 A3023 RMK AO2
Loading
Personal Weather Stations






























Interactive Weather Map New forecast layout! Learn more

10-Day Weather Forecast

Advertisements
Track Severe Weather on mobile